Time;durP1;ratioP1;P1;durP2;ratioP2;P2;SDS_P1;SDS_P2;PMS_P1;PMS_P2;Temp;Humidity;BMP_temperature;BMP_pressure;BME280_temperature;BME280_humidity;BME280_pressure;Samples;Min_cycle;Max_cycle;Signal;HPM_P1;HPM_P2
2022/05/27 00:03:01;;;;;;;;;;;19.10;64.00;;;;;;20884048;28;20414;-79
2022/05/27 00:13:01;;;;;;;;;;;19.10;64.10;;;;;;20850632;28;19966;-79
2022/05/27 00:23:02;;;;;;;;;;;19.10;64.20;;;;;;20879298;28;19913;-79
2022/05/27 00:33:03;;;;;;;;;;;19.00;64.30;;;;;;20880874;28;19979;-79
2022/05/27 00:43:03;;;;;;;;;;;19.00;64.40;;;;;;20897300;28;19919;-79
2022/05/27 00:53:04;;;;;;;;;;;19.00;64.50;;;;;;20879624;28;19924;-79
2022/05/27 01:03:04;;;;;;;;;;;19.00;64.60;;;;;;20878582;28;19936;-79
2022/05/27 01:13:09;;;;;;;;;;;19.00;64.80;;;;;;20878306;28;19947;-78
2022/05/27 01:23:12;;;;;;;;;;;19.00;64.80;;;;;;20912136;28;19919;-79
2022/05/27 01:33:17;;;;;;;;;;;19.00;64.80;;;;;;20894763;28;19960;-79
2022/05/27 01:43:17;;;;;;;;;;;19.00;64.80;;;;;;20891772;28;19913;-78
2022/05/27 01:53:19;;;;;;;;;;;19.00;64.90;;;;;;20909299;28;19963;-78
2022/05/27 02:03:58;;;;;;;;;;;19.00;64.90;;;;;;20874669;28;19908;-79
2022/05/27 02:14:12;;;;;;;;;;;19.00;64.90;;;;;;20733672;28;19920;-80
2022/05/27 02:24:21;;;;;;;;;;;18.90;64.80;;;;;;20872759;28;20003;-79
2022/05/27 02:44:59;;;;;;;;;;;19.00;64.90;;;;;;20852717;28;19912;-79
2022/05/27 02:55:32;;;;;;;;;;;19.00;64.90;;;;;;20903869;28;19924;-79
2022/05/27 03:05:32;;;;;;;;;;;18.90;64.80;;;;;;20853397;28;20314;-78
2022/05/27 03:15:51;;;;;;;;;;;18.90;64.80;;;;;;20903005;28;19964;-78
2022/05/27 03:26:18;;;;;;;;;;;18.90;64.80;;;;;;20898793;28;20368;-79
2022/05/27 03:36:20;;;;;;;;;;;18.90;64.80;;;;;;20898969;28;19920;-78
2022/05/27 03:46:30;;;;;;;;;;;18.90;64.80;;;;;;20901541;28;19909;-79
2022/05/27 03:56:40;;;;;;;;;;;18.80;64.70;;;;;;20910861;28;19921;-78
2022/05/27 04:06:41;;;;;;;;;;;18.90;64.80;;;;;;20899189;28;19912;-78
2022/05/27 04:16:42;;;;;;;;;;;18.90;64.80;;;;;;20899273;28;19921;-79
2022/05/27 04:26:42;;;;;;;;;;;18.80;64.60;;;;;;20897736;28;19909;-78
2022/05/27 04:36:43;;;;;;;;;;;18.80;64.70;;;;;;20880657;28;19928;-78
2022/05/27 04:46:45;;;;;;;;;;;18.80;64.70;;;;;;20896017;28;19916;-78
2022/05/27 04:56:46;;;;;;;;;;;18.80;64.70;;;;;;20895547;28;19920;-78
2022/05/27 05:06:46;;;;;;;;;;;18.80;64.70;;;;;;20893940;28;20319;-78
2022/05/27 05:16:47;;;;;;;;;;;18.80;65.40;;;;;;20894192;28;19916;-79
2022/05/27 05:26:47;;;;;;;;;;;18.80;64.70;;;;;;20892830;28;20353;-79
2022/05/27 05:36:48;;;;;;;;;;;18.80;64.80;;;;;;20876417;28;19975;-78
2022/05/27 05:46:49;;;;;;;;;;;18.70;64.70;;;;;;20887613;28;19913;-79
2022/05/27 05:56:49;;;;;;;;;;;18.80;64.80;;;;;;20864873;28;19916;-79
2022/05/27 06:06:50;;;;;;;;;;;18.80;64.80;;;;;;20887902;28;19996;-78
2022/05/27 06:16:50;;;;;;;;;;;18.80;64.80;;;;;;20870450;28;20011;-80
2022/05/27 06:26:51;;;;;;;;;;;18.80;64.70;;;;;;20888030;28;20372;-78
2022/05/27 06:36:55;;;;;;;;;;;18.80;64.70;;;;;;20869514;28;20016;-77
2022/05/27 06:46:56;;;;;;;;;;;18.80;64.60;;;;;;20869085;28;19912;-78
2022/05/27 06:56:56;;;;;;;;;;;18.80;64.60;;;;;;20886990;28;19920;-79
2022/05/27 07:06:57;;;;;;;;;;;18.70;64.40;;;;;;20870078;28;19932;-78
2022/05/27 07:16:57;;;;;;;;;;;18.80;64.30;;;;;;21239812;22;19946;-78
2022/05/27 07:26:58;;;;;;;;;;;18.70;64.10;;;;;;20772294;28;20396;-78
2022/05/27 07:36:58;;;;;;;;;;;18.70;63.80;;;;;;20854037;28;19920;-78
2022/05/27 07:46:59;;;;;;;;;;;18.70;63.70;;;;;;20817011;28;20004;-79
2022/05/27 07:57:00;;;;;;;;;;;18.70;63.40;;;;;;20815418;28;19979;-78
2022/05/27 08:07:00;;;;;;;;;;;18.70;63.30;;;;;;20814685;28;20368;-76
2022/05/27 08:17:01;;;;;;;;;;;18.80;63.20;;;;;;20760318;28;19916;-76
2022/05/27 08:27:01;;;;;;;;;;;18.80;63.00;;;;;;20800259;28;19913;-75
2022/05/27 08:47:22;;;;;;;;;;;18.70;62.50;;;;;;20813596;28;19999;-76
2022/05/27 09:07:48;;;;;;;;;;;18.80;62.10;;;;;;20821056;28;19917;-74
2022/05/27 09:17:49;;;;;;;;;;;18.80;61.80;;;;;;20825590;28;19928;-73
2022/05/27 09:27:53;;;;;;;;;;;18.70;61.40;;;;;;20827364;28;19909;-74
2022/05/27 09:37:54;;;;;;;;;;;18.70;61.00;;;;;;20774592;28;19923;-73
2022/05/27 09:47:58;;;;;;;;;;;18.80;60.70;;;;;;20792001;28;20007;-71
2022/05/27 09:58:00;;;;;;;;;;;18.70;60.30;;;;;;20790527;28;20346;-74
2022/05/27 10:08:00;;;;;;;;;;;18.70;60.00;;;;;;20796107;28;20019;-76
2022/05/27 10:18:14;;;;;;;;;;;18.70;59.80;;;;;;20816950;28;19928;-78
2022/05/27 10:28:25;;;;;;;;;;;18.70;59.60;;;;;;20796887;28;20046;-78
2022/05/27 10:38:38;;;;;;;;;;;18.70;59.50;;;;;;20792967;28;19917;-73
2022/05/27 10:48:56;;;;;;;;;;;18.70;59.40;;;;;;20808118;28;19913;-76
2022/05/27 11:09:34;;;;;;;;;;;18.60;59.00;;;;;;20827060;28;19917;-76
2022/05/27 11:19:47;;;;;;;;;;;18.70;58.80;;;;;;20822522;28;19916;-73
2022/05/27 11:29:51;;;;;;;;;;;18.70;58.30;;;;;;20820342;28;19913;-73
2022/05/27 11:40:05;;;;;;;;;;;18.70;58.50;;;;;;20770588;28;20288;-74
2022/05/27 11:50:25;;;;;;;;;;;18.70;58.70;;;;;;20784447;28;20334;-74
2022/05/27 12:00:26;;;;;;;;;;;18.80;58.60;;;;;;20852858;28;19917;-75
2022/05/27 12:10:47;;;;;;;;;;;18.70;58.20;;;;;;20770285;28;19912;-75
2022/05/27 12:20:47;;;;;;;;;;;18.70;57.80;;;;;;20831310;28;19921;-77
2022/05/27 12:30:48;;;;;;;;;;;18.70;57.20;;;;;;20815623;28;20508;-77
2022/05/27 12:40:53;;;;;;;;;;;18.70;56.70;;;;;;20797840;28;19924;-79
2022/05/27 12:50:59;;;;;;;;;;;18.70;56.30;;;;;;20798634;28;19916;-80
2022/05/27 13:01:00;;;;;;;;;;;18.70;56.10;;;;;;20803178;28;19912;-83
2022/05/27 13:11:01;;;;;;;;;;;18.80;55.30;;;;;;20786866;28;19913;-83
2022/05/27 13:21:12;;;;;;;;;;;18.70;54.50;;;;;;20804183;28;19931;-84
2022/05/27 13:31:14;;;;;;;;;;;18.70;53.00;;;;;;20801256;28;19928;-83
2022/05/27 13:41:17;;;;;;;;;;;18.70;52.00;;;;;;20798121;28;20007;-79
2022/05/27 13:51:19;;;;;;;;;;;18.70;51.90;;;;;;20799784;28;19909;-81
2022/05/27 14:01:20;;;;;;;;;;;18.80;53.00;;;;;;20795534;28;19975;-80
2022/05/27 14:11:28;;;;;;;;;;;18.80;53.60;;;;;;20796760;28;19909;-79
2022/05/27 14:31:48;;;;;;;;;;;18.90;54.60;;;;;;20811492;28;19909;-74
2022/05/27 14:41:49;;;;;;;;;;;19.00;53.70;;;;;;20821428;28;19921;-72
2022/05/27 14:51:49;;;;;;;;;;;19.00;53.60;;;;;;20787208;28;20337;-76
2022/05/27 15:01:54;;;;;;;;;;;19.00;53.30;;;;;;20774959;28;20343;-78
2022/05/27 15:12:04;;;;;;;;;;;19.10;52.10;;;;;;20803875;28;20392;-73
2022/05/27 15:22:05;;;;;;;;;;;19.20;52.00;;;;;;20785975;28;19917;-73
2022/05/27 15:42:29;;;;;;;;;;;19.10;51.30;;;;;;20804759;28;20395;-73
2022/05/27 15:52:30;;;;;;;;;;;19.20;51.80;;;;;;20800383;28;19955;-75
2022/05/27 16:02:31;;;;;;;;;;;19.20;51.90;;;;;;20807874;28;19921;-74
2022/05/27 16:12:32;;;;;;;;;;;19.40;52.00;;;;;;20821082;28;19951;-73
2022/05/27 16:22:34;;;;;;;;;;;19.40;51.90;;;;;;20828214;28;20300;-73
2022/05/27 16:32:35;;;;;;;;;;;19.40;51.60;;;;;;20899119;28;19916;-73
2022/05/27 16:42:35;;;;;;;;;;;19.50;51.30;;;;;;20895115;28;19916;-69
2022/05/27 16:52:36;;;;;;;;;;;19.50;51.20;;;;;;20797028;28;19909;-71
2022/05/27 17:02:47;;;;;;;;;;;19.50;51.20;;;;;;20803412;28;19920;-78
2022/05/27 17:12:47;;;;;;;;;;;19.40;51.00;;;;;;20782281;28;20004;-75
2022/05/27 17:22:48;;;;;;;;;;;19.40;51.30;;;;;;20811374;28;20000;-77
2022/05/27 17:32:48;;;;;;;;;;;19.40;51.20;;;;;;20776142;28;19913;-74
2022/05/27 17:42:49;;;;;;;;;;;19.30;51.00;;;;;;20809733;28;19938;-75
2022/05/27 17:52:50;;;;;;;;;;;19.20;51.10;;;;;;20793976;28;19909;-75
2022/05/27 18:02:50;;;;;;;;;;;19.20;51.40;;;;;;20791919;28;19953;-74
2022/05/27 18:12:51;;;;;;;;;;;19.10;51.70;;;;;;20790716;28;19909;-76
2022/05/27 18:22:51;;;;;;;;;;;19.10;52.70;;;;;;20811869;28;20361;-74
2022/05/27 18:32:52;;;;;;;;;;;19.00;52.40;;;;;;20796860;28;19952;-76
2022/05/27 18:42:53;;;;;;;;;;;18.90;52.50;;;;;;20812857;28;19924;-74
2022/05/27 18:52:53;;;;;;;;;;;18.90;52.70;;;;;;20812278;28;19909;-74
2022/05/27 19:02:54;;;;;;;;;;;18.80;52.70;;;;;;20794719;28;19980;-74
2022/05/27 19:12:55;;;;;;;;;;;18.80;52.80;;;;;;20774661;28;20285;-74
2022/05/27 19:22:57;;;;;;;;;;;18.80;53.00;;;;;;20799063;28;20053;-73
2022/05/27 19:32:57;;;;;;;;;;;18.80;53.40;;;;;;20803206;28;19909;-73
2022/05/27 19:42:58;;;;;;;;;;;18.80;53.90;;;;;;20804700;28;19921;-76
2022/05/27 19:52:58;;;;;;;;;;;18.70;54.20;;;;;;20804743;28;20376;-74
2022/05/27 20:13:18;;;;;;;;;;;18.60;54.80;;;;;;20837900;28;19909;-73
2022/05/27 20:23:19;;;;;;;;;;;18.70;55.10;;;;;;20819074;28;19974;-75
2022/05/27 20:33:19;;;;;;;;;;;18.60;55.20;;;;;;20819369;28;20004;-73
2022/05/27 20:43:20;;;;;;;;;;;18.50;55.30;;;;;;20817704;28;19919;-73
2022/05/27 20:53:21;;;;;;;;;;;18.50;55.50;;;;;;20834842;28;19908;-74
2022/05/27 21:03:22;;;;;;;;;;;18.60;55.60;;;;;;20800173;28;20427;-73
2022/05/27 21:13:23;;;;;;;;;;;18.60;55.70;;;;;;20816054;28;19909;-75
2022/05/27 21:23:23;;;;;;;;;;;18.50;55.70;;;;;;20815805;28;19959;-73
2022/05/27 21:33:27;;;;;;;;;;;18.50;55.70;;;;;;20798151;28;19909;-72
2022/05/27 21:43:28;;;;;;;;;;;18.50;55.70;;;;;;20795971;28;20297;-73
2022/05/27 21:53:28;;;;;;;;;;;18.50;55.70;;;;;;20795285;28;19917;-74
2022/05/27 22:03:29;;;;;;;;;;;18.50;55.80;;;;;;20793407;28;19909;-74
2022/05/27 22:13:30;;;;;;;;;;;18.50;55.90;;;;;;20810702;28;19915;-75
2022/05/27 22:23:31;;;;;;;;;;;18.40;56.10;;;;;;20800061;28;19912;-75
2022/05/27 22:33:31;;;;;;;;;;;18.40;56.10;;;;;;20874691;28;19909;-74
2022/05/27 22:43:32;;;;;;;;;;;18.40;56.30;;;;;;20874282;28;20404;-73
2022/05/27 22:53:33;;;;;;;;;;;18.40;56.30;;;;;;20891679;28;20011;-74
2022/05/27 23:03:33;;;;;;;;;;;18.40;56.40;;;;;;20889051;28;19935;-76
2022/05/27 23:23:53;;;;;;;;;;;18.40;56.50;;;;;;20875245;28;19913;-72
2022/05/27 23:33:53;;;;;;;;;;;18.40;56.60;;;;;;20888049;28;19917;-74
2022/05/27 23:43:56;;;;;;;;;;;18.30;56.60;;;;;;20887111;28;20379;-74
2022/05/27 23:53:56;;;;;;;;;;;18.30;56.60;;;;;;20871329;28;20265;-76
